createdAt,value
2023-05-11T00:01:35.344Z,15.38
2023-05-11T00:04:05.063Z,19.77
2023-05-11T00:06:34.718Z,17.95
2023-05-11T00:09:04.398Z,20.35
2023-05-11T00:11:34.156Z,20.67
2023-05-11T00:14:03.794Z,22.80
2023-05-11T00:16:33.370Z,22.27
2023-05-11T00:19:03.169Z,24.10
2023-05-11T00:21:33.717Z,21.92
2023-05-11T00:24:03.325Z,24.02
2023-05-11T00:26:32.899Z,22.35
2023-05-11T00:29:02.641Z,23.05
2023-05-11T00:31:32.353Z,20.88
2023-05-11T00:34:01.907Z,20.80
2023-05-11T00:36:31.501Z,20.70
2023-05-11T00:39:01.137Z,22.30
2023-05-11T00:41:31.031Z,20.65
2023-05-11T00:44:00.663Z,22.85
2023-05-11T00:46:30.500Z,23.35
2023-05-11T00:49:00.667Z,23.52
2023-05-11T00:51:30.449Z,24.67
2023-05-11T00:54:01.540Z,23.33
2023-05-11T00:56:31.446Z,23.70
2023-05-11T00:59:01.444Z,25.30
2023-05-11T01:01:32.086Z,20.20
2023-05-11T01:04:01.690Z,24.98
2023-05-11T01:06:49.366Z,22.45
2023-05-11T01:09:33.861Z,22.95
2023-05-11T01:12:17.926Z,19.38
2023-05-11T01:15:14.653Z,23.95
2023-05-11T01:18:28.621Z,24.58
2023-05-11T01:21:02.982Z,19.67
2023-05-11T01:23:53.276Z,21.10
2023-05-11T01:26:53.215Z,22.63
2023-05-11T01:29:44.072Z,24.38
2023-05-11T01:32:24.220Z,22.90
2023-05-11T01:35:05.189Z,25.23
2023-05-11T01:37:36.382Z,23.80
2023-05-11T01:40:12.360Z,23.67
2023-05-11T01:42:49.837Z,22.10
2023-05-11T01:45:20.949Z,23.35
2023-05-11T01:47:52.995Z,25.00
2023-05-11T01:50:24.838Z,22.95
2023-05-11T01:52:56.063Z,23.85
2023-05-11T01:55:27.903Z,23.88
2023-05-11T01:57:59.802Z,22.63
2023-05-11T02:00:29.525Z,18.35
2023-05-11T02:03:01.121Z,22.77
2023-05-11T02:05:32.141Z,20.10
2023-05-11T02:08:04.791Z,23.30
2023-05-11T02:10:36.340Z,23.20
2023-05-11T02:13:08.428Z,21.02
2023-05-11T02:15:43.205Z,21.77
2023-05-11T02:18:16.301Z,23.30
2023-05-11T02:20:48.924Z,21.38
2023-05-11T02:23:20.276Z,23.33
2023-05-11T02:25:51.865Z,21.35
2023-05-11T02:28:22.029Z,23.10
2023-05-11T02:30:57.678Z,23.40
2023-05-11T02:33:35.034Z,22.58
2023-05-11T02:36:07.318Z,23.67
2023-05-11T02:38:38.100Z,23.02
2023-05-11T02:41:13.760Z,20.15
2023-05-11T02:43:49.497Z,21.58
2023-05-11T02:46:28.347Z,20.08
2023-05-11T02:49:04.523Z,18.98
2023-05-11T02:51:38.528Z,21.33
2023-05-11T02:54:14.612Z,23.15
2023-05-11T02:56:44.406Z,20.60
2023-05-11T02:59:16.911Z,21.65
2023-05-11T03:01:47.880Z,21.20
2023-05-11T03:04:17.709Z,23.42
2023-05-11T03:06:47.367Z,22.67
2023-05-11T03:09:17.424Z,20.83
2023-05-11T03:11:47.579Z,20.30
2023-05-11T03:14:17.471Z,16.35
2023-05-11T03:16:48.137Z,18.48
2023-05-11T03:19:18.377Z,19.23
2023-05-11T03:21:48.842Z,17.33
2023-05-11T03:24:19.674Z,15.52
2023-05-11T03:26:49.963Z,21.52
2023-05-11T03:29:20.966Z,17.80
2023-05-11T03:31:51.406Z,16.48
2023-05-11T03:34:21.217Z,19.65
2023-05-11T03:36:52.667Z,22.10
2023-05-11T03:39:24.843Z,22.08
2023-05-11T03:41:55.571Z,23.08
2023-05-11T03:44:26.183Z,21.58
2023-05-11T03:46:56.784Z,19.80
2023-05-11T03:49:27.865Z,22.10
2023-05-11T03:51:58.590Z,18.50
2023-05-11T03:54:28.430Z,20.70
2023-05-11T03:56:58.041Z,21.65
2023-05-11T03:59:28.714Z,24.70
2023-05-11T04:02:00.306Z,24.60
2023-05-11T04:04:33.847Z,25.17
2023-05-11T04:07:03.790Z,20.67
2023-05-11T04:09:33.440Z,24.47
2023-05-11T04:12:03.121Z,23.48
2023-05-11T04:14:32.817Z,19.77
2023-05-11T04:17:02.910Z,22.23
2023-05-11T04:19:32.509Z,23.13
2023-05-11T04:22:02.436Z,21.48
2023-05-11T04:24:32.240Z,22.42
2023-05-11T04:27:01.891Z,21.92
2023-05-11T04:29:31.601Z,20.05
2023-05-11T04:32:01.476Z,22.27
2023-05-11T04:34:31.100Z,21.75
2023-05-11T04:37:00.757Z,23.45
2023-05-11T04:39:30.583Z,25.35
2023-05-11T04:42:01.318Z,24.20
2023-05-11T04:44:30.981Z,22.40
2023-05-11T04:47:00.757Z,18.50
2023-05-11T04:49:30.624Z,18.70
2023-05-11T04:52:00.241Z,18.95
2023-05-11T04:54:29.936Z,18.08
2023-05-11T04:56:59.574Z,19.77
2023-05-11T04:59:29.292Z,16.15
2023-05-11T05:01:58.897Z,15.70
2023-05-11T05:04:28.578Z,19.77
2023-05-11T05:06:58.299Z,21.83
2023-05-11T05:09:27.946Z,20.33
2023-05-11T05:11:57.587Z,21.60
2023-05-11T05:14:27.304Z,23.90
2023-05-11T05:16:56.851Z,23.08
2023-05-11T05:19:26.539Z,22.65
2023-05-11T05:21:56.135Z,24.85
2023-05-11T05:24:25.792Z,25.13
2023-05-11T05:26:55.391Z,25.10
2023-05-11T05:29:25.055Z,22.65
2023-05-11T05:31:54.664Z,22.58
2023-05-11T05:34:24.239Z,24.17
2023-05-11T05:36:53.936Z,22.23
2023-05-11T05:39:23.643Z,20.17
2023-05-11T05:41:53.580Z,22.75
2023-05-11T05:44:23.429Z,24.50
2023-05-11T05:46:53.058Z,23.13
2023-05-11T05:49:22.714Z,19.83
2023-05-11T05:51:53.693Z,24.55
2023-05-11T05:54:23.282Z,23.13
2023-05-11T05:56:53.557Z,21.13
2023-05-11T05:59:24.915Z,24.00
2023-05-11T06:01:54.524Z,20.65
2023-05-11T06:04:24.266Z,23.02
2023-05-11T06:06:54.100Z,21.02
2023-05-11T06:09:23.889Z,23.52
2023-05-11T06:11:55.592Z,18.52
2023-05-11T06:14:25.215Z,22.38
2023-05-11T06:16:55.259Z,21.50
2023-05-11T06:19:24.885Z,19.80
2023-05-11T06:21:54.523Z,24.48
2023-05-11T06:24:24.146Z,23.70
2023-05-11T06:26:53.771Z,20.88
2023-05-11T06:29:23.912Z,20.30
2023-05-11T06:31:57.584Z,21.48
2023-05-11T06:34:27.344Z,19.27
2023-05-11T06:36:56.908Z,19.77
2023-05-11T06:39:26.475Z,21.77
2023-05-11T06:41:57.068Z,20.08
2023-05-11T06:44:28.324Z,19.45
2023-05-11T06:46:58.031Z,21.35
2023-05-11T06:49:27.910Z,19.63
2023-05-11T06:51:57.458Z,21.67
2023-05-11T06:54:27.154Z,22.60
2023-05-11T06:56:56.908Z,21.60
2023-05-11T06:59:26.697Z,27.38
2023-05-11T07:01:56.461Z,25.02
2023-05-11T07:04:26.630Z,25.77
2023-05-11T07:06:56.509Z,25.00
2023-05-11T07:09:26.292Z,23.52
2023-05-11T07:11:55.957Z,26.05
2023-05-11T07:14:25.583Z,24.10
2023-05-11T07:16:55.261Z,23.67
2023-05-11T07:19:24.946Z,24.65
2023-05-11T07:21:54.665Z,24.85
2023-05-11T07:24:24.267Z,24.42
2023-05-11T07:26:53.843Z,22.80
2023-05-11T07:29:23.423Z,21.80
2023-05-11T07:31:53.204Z,22.63
2023-05-11T07:34:23.040Z,19.85
2023-05-11T07:36:52.773Z,21.15
2023-05-11T07:39:22.355Z,17.17
2023-05-11T07:41:51.987Z,20.92
2023-05-11T07:44:21.568Z,18.45
2023-05-11T07:46:51.210Z,17.20
2023-05-11T07:49:25.489Z,16.15
2023-05-11T07:52:05.235Z,17.20
2023-05-11T07:54:34.843Z,15.68
2023-05-11T07:57:05.551Z,15.50
2023-05-11T07:59:35.338Z,14.45
2023-05-11T08:02:06.886Z,14.93
2023-05-11T08:04:36.584Z,12.95
2023-05-11T08:07:06.559Z,13.43
2023-05-11T08:09:36.213Z,14.23
2023-05-11T08:12:06.142Z,14.60
2023-05-11T08:14:35.792Z,15.80
2023-05-11T08:17:05.476Z,12.75
2023-05-11T08:19:35.105Z,13.48
2023-05-11T08:22:04.772Z,14.10
2023-05-11T08:24:34.415Z,10.88
2023-05-11T08:27:04.361Z,11.02
2023-05-11T08:29:34.004Z,10.65
2023-05-11T08:32:03.728Z,12.80
2023-05-11T08:34:33.436Z,9.98
2023-05-11T08:37:06.589Z,12.98
2023-05-11T08:39:46.559Z,12.02
2023-05-11T08:42:22.180Z,9.40
2023-05-11T08:44:52.218Z,11.30
2023-05-11T08:47:23.936Z,10.40
2023-05-11T08:49:57.210Z,12.93
2023-05-11T08:52:29.435Z,12.77
2023-05-11T08:54:59.109Z,10.55
2023-05-11T08:57:32.854Z,10.52
2023-05-11T09:00:04.538Z,10.77
2023-05-11T09:02:34.553Z,12.18
2023-05-11T09:05:05.876Z,9.93
2023-05-11T09:07:38.864Z,9.60
2023-05-11T09:10:10.440Z,9.32
2023-05-11T09:12:41.155Z,8.82
2023-05-11T09:15:11.263Z,9.73
2023-05-11T09:17:41.084Z,9.52
2023-05-11T09:20:11.068Z,9.20
2023-05-11T09:22:48.796Z,10.38
2023-05-11T09:25:21.572Z,9.88
2023-05-11T09:27:51.535Z,9.32
2023-05-11T09:30:25.041Z,9.73
2023-05-11T09:33:01.867Z,11.38
2023-05-11T09:35:33.777Z,9.68
2023-05-11T09:38:07.650Z,8.60
2023-05-11T09:40:43.183Z,9.07
2023-05-11T09:43:33.344Z,8.80
2023-05-11T09:46:08.499Z,7.93
2023-05-11T09:48:38.133Z,8.32
2023-05-11T09:51:09.592Z,9.27
2023-05-11T09:53:42.576Z,8.32
2023-05-11T09:56:13.463Z,7.50
2023-05-11T09:58:58.844Z,7.63
2023-05-11T10:01:36.177Z,8.50
2023-05-11T10:04:22.147Z,7.75
2023-05-11T10:06:55.038Z,7.35
2023-05-11T10:09:28.835Z,7.57
2023-05-11T10:11:58.911Z,8.38
2023-05-11T10:14:30.992Z,7.20
2023-05-11T10:17:03.524Z,7.75
2023-05-11T10:19:34.439Z,6.40
2023-05-11T10:22:07.170Z,7.93
2023-05-11T10:24:37.760Z,7.93
2023-05-11T10:27:07.816Z,7.97
2023-05-11T10:29:39.226Z,7.90
2023-05-11T10:32:10.284Z,8.00
2023-05-11T10:34:43.484Z,9.23
2023-05-11T10:37:13.536Z,8.68
2023-05-11T10:39:43.834Z,8.35
2023-05-11T10:42:49.860Z,9.48
2023-05-11T10:45:23.502Z,9.60
2023-05-11T10:48:22.531Z,9.73
2023-05-11T10:50:55.200Z,9.38
2023-05-11T10:53:41.161Z,7.87
2023-05-11T10:56:36.817Z,9.57
2023-05-11T10:59:06.446Z,10.75
2023-05-11T11:01:52.262Z,9.27
2023-05-11T11:04:22.249Z,8.95
2023-05-11T11:07:07.577Z,9.15
2023-05-11T11:10:00.883Z,8.27
2023-05-11T11:12:31.496Z,8.77
2023-05-11T11:15:08.566Z,10.55
2023-05-11T11:17:38.751Z,11.63
2023-05-11T11:20:10.024Z,10.23
2023-05-11T11:22:40.146Z,11.07
2023-05-11T11:25:11.819Z,10.20
2023-05-11T11:27:47.322Z,10.43
2023-05-11T11:30:28.226Z,8.60
2023-05-11T11:33:17.888Z,8.80
2023-05-11T11:35:48.458Z,8.57
2023-05-11T11:38:20.270Z,10.40
2023-05-11T11:40:53.933Z,9.85
2023-05-11T11:43:46.167Z,8.98
2023-05-11T11:46:29.590Z,9.23
2023-05-11T11:49:12.279Z,9.60
2023-05-11T11:51:42.938Z,10.25
2023-05-11T11:54:12.878Z,10.35
2023-05-11T11:56:45.133Z,9.38
2023-05-11T11:59:16.515Z,10.20
2023-05-11T12:01:47.299Z,9.88
2023-05-11T12:04:42.192Z,11.93
2023-05-11T12:07:13.013Z,10.57
2023-05-11T12:09:42.848Z,9.85
2023-05-11T12:12:12.515Z,10.77
2023-05-11T12:14:46.246Z,10.50
2023-05-11T12:17:17.397Z,10.35
2023-05-11T12:19:48.119Z,10.65
2023-05-11T12:22:23.522Z,9.80
2023-05-11T12:24:53.568Z,9.68
2023-05-11T12:27:23.178Z,9.85
2023-05-11T12:29:53.630Z,10.55
2023-05-11T12:32:33.415Z,10.52
2023-05-11T12:35:04.339Z,10.35
2023-05-11T12:37:34.103Z,8.98
2023-05-11T12:40:03.907Z,10.85
2023-05-11T12:42:35.291Z,8.82
2023-05-11T12:45:07.243Z,9.75
2023-05-11T12:47:38.020Z,11.32
2023-05-11T12:50:08.714Z,10.23
2023-05-11T12:52:38.578Z,10.30
2023-05-11T12:55:08.559Z,10.93
2023-05-11T12:57:38.165Z,11.00
2023-05-11T13:00:18.110Z,11.10
2023-05-11T13:02:57.163Z,10.48
2023-05-11T13:05:30.890Z,10.35
2023-05-11T13:08:05.292Z,10.25
2023-05-11T13:10:34.902Z,10.40
2023-05-11T13:13:04.516Z,11.73
2023-05-11T13:15:34.192Z,12.35
2023-05-11T13:18:05.051Z,12.20
2023-05-11T13:20:37.810Z,11.68
2023-05-11T13:23:14.786Z,11.23
2023-05-11T13:25:50.471Z,11.45
2023-05-11T13:28:23.542Z,11.25
2023-05-11T13:31:01.019Z,12.95
2023-05-11T13:33:31.033Z,11.55
2023-05-11T13:36:00.638Z,11.93
2023-05-11T13:38:30.296Z,12.05
2023-05-11T13:40:59.898Z,11.98
2023-05-11T13:43:29.566Z,12.43
2023-05-11T13:45:59.189Z,13.57
2023-05-11T13:48:28.790Z,11.95
2023-05-11T13:50:58.493Z,13.05
2023-05-11T13:53:28.154Z,14.15
2023-05-11T13:55:57.729Z,12.20
2023-05-11T13:58:27.332Z,12.65
2023-05-11T14:03:34.957Z,11.43
2023-05-11T14:06:05.405Z,12.20
2023-05-11T14:08:35.169Z,11.98
2023-05-11T14:11:04.763Z,12.45
2023-05-11T14:13:34.739Z,12.25
2023-05-11T14:16:04.406Z,12.43
2023-05-11T14:18:34.172Z,13.05
2023-05-11T14:21:03.869Z,13.45
2023-05-11T14:23:33.505Z,12.90
2023-05-11T14:26:03.349Z,12.88
2023-05-11T14:28:33.510Z,14.45
2023-05-11T14:31:03.332Z,14.70
2023-05-11T14:33:33.382Z,14.13
2023-05-11T14:36:03.082Z,14.77
2023-05-11T14:38:33.406Z,14.60
2023-05-11T14:41:04.928Z,14.68
2023-05-11T14:43:34.935Z,15.90
2023-05-11T14:46:06.212Z,14.50
2023-05-11T14:48:35.786Z,13.93
2023-05-11T14:51:06.406Z,14.45
2023-05-11T14:53:36.083Z,14.45
2023-05-11T14:56:06.166Z,14.18
2023-05-11T14:58:35.776Z,14.63
2023-05-11T15:01:06.415Z,14.05
2023-05-11T15:03:38.645Z,12.63
2023-05-11T15:06:08.670Z,13.88
2023-05-11T15:08:38.336Z,13.93
2023-05-11T15:11:07.946Z,13.70
2023-05-11T15:13:37.538Z,14.50
2023-05-11T15:16:07.778Z,14.73
2023-05-11T15:18:37.661Z,15.48
2023-05-11T15:21:07.656Z,15.48
2023-05-11T15:23:37.257Z,15.98
2023-05-11T15:26:06.908Z,15.40
2023-05-11T15:28:36.513Z,17.65
2023-05-11T15:31:06.206Z,17.52
2023-05-11T15:33:35.908Z,15.80
2023-05-11T15:36:05.696Z,18.02
2023-05-11T15:38:35.307Z,16.30
2023-05-11T15:41:07.554Z,17.08
2023-05-11T15:43:37.685Z,18.23
2023-05-11T15:46:08.578Z,17.65
2023-05-11T15:48:38.254Z,17.92
2023-05-11T15:51:08.011Z,17.48
2023-05-11T15:53:38.515Z,17.60
2023-05-11T15:56:08.488Z,16.00
2023-05-11T15:58:38.130Z,17.42
2023-05-11T16:01:07.816Z,16.08
2023-05-11T16:03:37.512Z,16.55
2023-05-11T16:06:07.590Z,17.17
2023-05-11T16:08:38.035Z,16.60
2023-05-11T16:11:07.654Z,16.20
2023-05-11T16:13:37.292Z,16.95
2023-05-11T16:16:07.182Z,18.13
2023-05-11T16:18:37.446Z,18.55
2023-05-11T16:21:07.841Z,17.48
2023-05-11T16:23:37.445Z,16.05
2023-05-11T16:26:07.147Z,16.65
2023-05-11T16:28:36.726Z,17.17
2023-05-11T16:31:06.389Z,17.85
2023-05-11T16:33:35.968Z,17.80
2023-05-11T16:36:07.093Z,19.02
2023-05-11T16:38:37.387Z,17.55
2023-05-11T16:41:07.130Z,16.27
2023-05-11T16:43:36.970Z,15.77
2023-05-11T16:46:06.669Z,17.60
2023-05-11T16:48:36.465Z,16.70
2023-05-11T16:51:06.329Z,18.27
2023-05-11T16:53:36.046Z,17.08
2023-05-11T16:56:05.843Z,17.48
2023-05-11T16:58:35.775Z,17.15
2023-05-11T17:01:06.253Z,18.55
2023-05-11T17:03:36.132Z,16.55
2023-05-11T17:06:05.911Z,17.38
2023-05-11T17:08:35.864Z,18.70
2023-05-11T17:11:05.519Z,18.65
2023-05-11T17:13:35.214Z,17.65
2023-05-11T17:16:04.901Z,17.17
2023-05-11T17:18:34.762Z,18.25
2023-05-11T17:21:04.446Z,16.95
2023-05-11T17:23:35.404Z,17.05
2023-05-11T17:26:12.477Z,18.67
2023-05-11T17:28:42.518Z,17.27
2023-05-11T17:31:14.080Z,17.48
2023-05-11T17:33:44.293Z,17.63
2023-05-11T17:36:14.469Z,18.88
2023-05-11T17:38:44.544Z,17.67
2023-05-11T17:41:14.180Z,17.73
2023-05-11T17:43:43.815Z,18.08
2023-05-11T17:46:13.552Z,17.15
2023-05-11T17:48:43.203Z,18.60
2023-05-11T17:51:12.809Z,19.02
2023-05-11T17:53:42.418Z,17.10
2023-05-11T17:56:13.228Z,18.20
2023-05-11T17:58:44.635Z,18.08
2023-05-11T18:01:15.627Z,17.85
2023-05-11T18:03:45.657Z,17.10
2023-05-11T18:06:15.448Z,17.60
2023-05-11T18:08:45.440Z,17.67
2023-05-11T18:11:15.494Z,18.02
2023-05-11T18:13:45.211Z,18.73
2023-05-11T18:16:15.211Z,19.77
2023-05-11T18:18:44.948Z,18.70
2023-05-11T18:21:14.871Z,17.77
2023-05-11T18:23:44.507Z,17.80
2023-05-11T18:26:15.548Z,18.85
2023-05-11T18:28:45.106Z,18.10
2023-05-11T18:31:14.959Z,16.98
2023-05-11T18:33:44.629Z,17.65
2023-05-11T18:36:14.233Z,16.13
2023-05-11T18:38:44.985Z,17.58
2023-05-11T18:41:14.614Z,19.42
2023-05-11T18:43:49.745Z,18.80
2023-05-11T18:46:19.472Z,19.48
2023-05-11T18:48:51.930Z,19.63
2023-05-11T18:51:24.890Z,19.60
2023-05-11T18:53:56.913Z,19.45
2023-05-11T18:56:26.987Z,18.48
2023-05-11T18:58:56.608Z,19.35
2023-05-11T19:01:33.325Z,18.67
2023-05-11T19:04:19.136Z,18.58
2023-05-11T19:06:48.846Z,17.65
2023-05-11T19:09:19.119Z,18.58
2023-05-11T19:11:48.854Z,21.00
2023-05-11T19:14:18.526Z,18.85
2023-05-11T19:16:48.245Z,20.02
2023-05-11T19:19:18.007Z,20.40
2023-05-11T19:21:47.710Z,21.10
2023-05-11T19:24:17.461Z,19.77
2023-05-11T19:26:58.661Z,20.27
2023-05-11T19:29:32.970Z,21.23
2023-05-11T19:32:02.710Z,20.88
2023-05-11T19:34:32.404Z,19.15
2023-05-11T19:37:02.267Z,18.40
2023-05-11T19:39:31.916Z,17.38
2023-05-11T19:42:01.812Z,19.52
2023-05-11T19:44:34.515Z,19.17
2023-05-11T19:47:04.075Z,19.77
2023-05-11T19:49:33.733Z,21.90
2023-05-11T19:52:03.451Z,19.52
2023-05-11T19:54:33.885Z,20.88
2023-05-11T19:57:04.645Z,21.75
2023-05-11T19:59:34.288Z,21.02
2023-05-11T20:02:05.249Z,21.42
2023-05-11T20:04:34.930Z,22.88
2023-05-11T20:07:05.012Z,22.10
2023-05-11T20:09:34.639Z,22.75
2023-05-11T20:12:04.399Z,21.27
2023-05-11T20:14:34.078Z,21.05
2023-05-11T20:17:03.848Z,20.17
2023-05-11T20:19:33.549Z,20.08
2023-05-11T20:22:03.177Z,21.10
2023-05-11T20:24:36.007Z,22.92
2023-05-11T20:27:10.966Z,21.27
2023-05-11T20:29:41.916Z,21.13
2023-05-11T20:32:11.544Z,21.20
2023-05-11T20:34:41.211Z,22.75
2023-05-11T20:37:11.047Z,23.17
2023-05-11T20:39:41.720Z,23.85
2023-05-11T20:42:11.592Z,21.38
2023-05-11T20:44:41.285Z,24.75
2023-05-11T20:47:11.682Z,23.00
2023-05-11T20:49:41.315Z,24.20
2023-05-11T20:52:11.531Z,24.73
2023-05-11T20:54:41.221Z,22.83
2023-05-11T20:57:10.987Z,22.60
2023-05-11T21:02:13.016Z,24.63
2023-05-11T21:04:44.044Z,23.00
2023-05-11T21:07:13.687Z,24.48
2023-05-11T21:09:43.821Z,22.77
2023-05-11T21:12:13.514Z,23.58
2023-05-11T21:14:43.487Z,23.55
2023-05-11T21:17:13.203Z,21.98
2023-05-11T21:19:42.835Z,22.13
2023-05-11T21:22:12.458Z,24.00
2023-05-11T21:24:42.703Z,23.27
2023-05-11T21:27:12.945Z,22.45
2023-05-11T21:29:43.464Z,23.95
2023-05-11T21:32:13.381Z,22.73
2023-05-11T21:34:43.986Z,22.25
2023-05-11T21:37:16.211Z,20.60
2023-05-11T21:39:45.849Z,21.65
2023-05-11T21:42:15.544Z,22.48
2023-05-11T21:44:45.301Z,21.65
2023-05-11T21:47:14.936Z,21.90
2023-05-11T21:49:44.605Z,21.58
2023-05-11T21:52:14.256Z,23.13
2023-05-11T21:54:43.869Z,24.05
2023-05-11T21:57:13.509Z,24.55
2023-05-11T21:59:43.286Z,22.63
2023-05-11T22:02:13.002Z,22.92
2023-05-11T22:04:42.745Z,23.63
2023-05-11T22:07:12.313Z,24.13
2023-05-11T22:09:41.978Z,23.42
2023-05-11T22:12:11.916Z,22.98
2023-05-11T22:14:42.181Z,23.50
2023-05-11T22:17:12.574Z,23.63
2023-05-11T22:19:42.215Z,25.38
2023-05-11T22:22:15.010Z,25.88
2023-05-11T22:24:44.606Z,25.77
2023-05-11T22:27:17.152Z,26.23
2023-05-11T22:29:47.493Z,26.27
2023-05-11T22:32:17.178Z,26.70
2023-05-11T22:34:46.928Z,24.67
2023-05-11T22:37:16.751Z,24.98
2023-05-11T22:39:46.426Z,26.48
2023-05-11T22:42:16.019Z,30.20
2023-05-11T22:44:45.608Z,26.58
2023-05-11T22:47:15.519Z,27.98
2023-05-11T22:49:45.227Z,28.00
2023-05-11T22:52:15.039Z,30.92
2023-05-11T22:54:44.981Z,28.73
2023-05-11T22:57:17.732Z,28.08
2023-05-11T22:59:48.239Z,29.17
2023-05-11T23:02:18.017Z,32.45
2023-05-11T23:04:53.368Z,31.80
2023-05-11T23:07:23.277Z,30.02
2023-05-11T23:09:54.368Z,29.02
2023-05-11T23:12:23.998Z,29.77
2023-05-11T23:14:53.919Z,28.48
2023-05-11T23:17:23.657Z,29.15
2023-05-11T23:19:53.416Z,29.38
2023-05-11T23:22:23.058Z,26.42
2023-05-11T23:24:52.899Z,28.15
2023-05-11T23:27:22.515Z,29.77
2023-05-11T23:29:52.167Z,26.02
2023-05-11T23:32:21.796Z,27.42
2023-05-11T23:34:51.581Z,27.45
2023-05-11T23:37:21.253Z,29.35
2023-05-11T23:39:50.873Z,27.33
2023-05-11T23:42:21.085Z,28.70
2023-05-11T23:44:50.943Z,23.90
2023-05-11T23:47:21.184Z,27.92
2023-05-11T23:49:51.035Z,25.58
2023-05-11T23:52:20.714Z,27.35
2023-05-11T23:54:54.135Z,28.65
2023-05-11T23:57:23.754Z,28.60
2023-05-11T23:59:53.420Z,29.88
